createdAt,value
2022-08-16T00:01:24.823Z,11.65
2022-08-16T00:03:54.269Z,11.63
2022-08-16T00:06:22.705Z,10.95
2022-08-16T00:08:50.422Z,12.13
2022-08-16T00:11:20.730Z,12.45
2022-08-16T00:13:53.861Z,11.50
2022-08-16T00:17:01.221Z,11.50
2022-08-16T00:19:19.369Z,11.27
2022-08-16T00:21:53.273Z,11.32
2022-08-16T00:24:32.166Z,12.07
2022-08-16T00:27:02.403Z,11.82
2022-08-16T00:29:30.628Z,11.65
2022-08-16T00:32:05.552Z,11.93
2022-08-16T00:34:44.431Z,11.20
2022-08-16T00:37:24.081Z,11.95
2022-08-16T00:39:57.661Z,11.48
2022-08-16T00:42:31.964Z,11.10
2022-08-16T00:45:26.009Z,11.32
2022-08-16T00:47:54.816Z,11.37
2022-08-16T00:50:36.468Z,12.32
2022-08-16T00:53:10.197Z,11.82
2022-08-16T00:55:42.318Z,11.82
2022-08-16T00:58:13.148Z,12.38
2022-08-16T01:00:54.065Z,11.75
2022-08-16T01:03:30.138Z,11.10
2022-08-16T01:05:58.299Z,11.23
2022-08-16T01:08:36.050Z,11.90
2022-08-16T01:11:05.636Z,11.90
2022-08-16T01:13:37.285Z,12.20
2022-08-16T01:16:26.655Z,11.50
2022-08-16T01:19:21.366Z,11.93
2022-08-16T01:22:47.814Z,11.87
2022-08-16T01:24:55.642Z,12.32
2022-08-16T01:27:36.673Z,12.13
2022-08-16T01:30:20.598Z,13.02
2022-08-16T01:33:01.597Z,12.45
2022-08-16T01:35:38.742Z,12.52
2022-08-16T01:38:35.970Z,13.23
2022-08-16T01:41:19.133Z,13.32
2022-08-16T01:43:53.674Z,14.15
2022-08-16T01:46:30.074Z,14.23
2022-08-16T01:49:20.965Z,13.15
2022-08-16T01:52:00.401Z,13.25
2022-08-16T01:54:50.842Z,13.43
2022-08-16T01:57:22.751Z,13.80
2022-08-16T01:59:54.615Z,13.77
2022-08-16T02:02:28.406Z,13.77
2022-08-16T02:07:26.236Z,13.25
2022-08-16T02:09:58.759Z,13.85
2022-08-16T02:12:49.610Z,14.38
2022-08-16T02:15:25.677Z,12.35
2022-08-16T02:17:57.156Z,12.48
2022-08-16T02:20:28.190Z,13.48
2022-08-16T02:22:57.895Z,13.75
2022-08-16T02:25:51.921Z,13.70
2022-08-16T02:28:19.115Z,14.65
2022-08-16T02:30:50.474Z,13.90
2022-08-16T02:33:20.273Z,13.40
2022-08-16T02:35:55.311Z,13.70
2022-08-16T02:38:31.536Z,13.40
2022-08-16T02:41:01.931Z,14.70
2022-08-16T02:43:33.442Z,13.38
2022-08-16T02:48:38.449Z,13.70
2022-08-16T02:51:11.362Z,14.35
2022-08-16T02:53:44.757Z,14.25
2022-08-16T02:56:15.654Z,13.77
2022-08-16T02:58:50.713Z,15.13
2022-08-16T03:01:24.642Z,14.45
2022-08-16T03:04:29.687Z,14.68
2022-08-16T03:06:56.611Z,15.52
2022-08-16T03:09:41.139Z,15.10
2022-08-16T03:12:16.706Z,15.98
2022-08-16T03:14:46.643Z,15.52
2022-08-16T03:17:16.395Z,15.32
2022-08-16T03:19:47.967Z,15.18
2022-08-16T03:22:28.319Z,16.40
2022-08-16T03:25:03.318Z,16.25
2022-08-16T03:27:32.950Z,17.70
2022-08-16T03:30:16.044Z,16.98
2022-08-16T03:32:48.002Z,17.57
2022-08-16T03:35:33.271Z,18.40
2022-08-16T03:38:32.900Z,18.85
2022-08-16T03:41:24.200Z,19.15
2022-08-16T03:43:56.242Z,19.17
2022-08-16T03:46:48.142Z,18.50
2022-08-16T03:49:17.282Z,20.58
2022-08-16T03:51:47.586Z,20.17
2022-08-16T03:54:21.642Z,18.85
2022-08-16T03:56:56.736Z,19.25
2022-08-16T04:01:53.780Z,19.00
2022-08-16T04:04:32.597Z,20.73
2022-08-16T04:07:04.267Z,21.23
2022-08-16T04:09:38.152Z,19.83
2022-08-16T04:12:54.404Z,19.02
2022-08-16T04:14:59.032Z,19.25
2022-08-16T04:17:27.388Z,20.40
2022-08-16T04:19:58.345Z,21.05
2022-08-16T04:22:27.633Z,20.15
2022-08-16T04:24:59.691Z,19.95
2022-08-16T04:27:33.742Z,19.85
2022-08-16T04:30:04.855Z,20.77
2022-08-16T04:32:42.209Z,20.05
2022-08-16T04:35:16.531Z,20.95
2022-08-16T04:37:45.896Z,19.40
2022-08-16T04:40:25.370Z,20.08
2022-08-16T04:42:55.420Z,21.40
2022-08-16T04:45:35.877Z,20.45
2022-08-16T04:48:07.140Z,19.90
2022-08-16T04:50:43.762Z,20.50
2022-08-16T04:53:19.153Z,20.30
2022-08-16T04:55:53.390Z,21.23
2022-08-16T04:58:41.367Z,23.23
2022-08-16T05:01:12.124Z,20.73
2022-08-16T05:03:41.870Z,20.27
2022-08-16T05:06:42.070Z,20.33
2022-08-16T05:09:19.191Z,21.00
2022-08-16T05:11:51.234Z,21.15
2022-08-16T05:14:41.983Z,21.73
2022-08-16T05:17:05.920Z,20.83
2022-08-16T05:19:36.148Z,20.80
2022-08-16T05:22:18.038Z,21.35
2022-08-16T05:24:55.245Z,21.02
2022-08-16T05:27:23.370Z,21.52
2022-08-16T05:30:01.098Z,21.77
2022-08-16T05:32:34.187Z,21.38
2022-08-16T05:35:10.894Z,21.98
2022-08-16T05:37:43.622Z,21.30
2022-08-16T05:40:14.793Z,22.58
2022-08-16T05:42:46.160Z,22.00
2022-08-16T05:48:00.404Z,20.83
2022-08-16T05:50:53.015Z,20.90
2022-08-16T05:53:24.138Z,20.83
2022-08-16T05:56:13.047Z,21.08
2022-08-16T05:58:48.537Z,21.92
2022-08-16T06:01:16.860Z,21.52
2022-08-16T06:03:48.094Z,20.52
2022-08-16T06:06:28.996Z,19.83
2022-08-16T06:08:57.410Z,20.30
2022-08-16T06:11:27.753Z,19.88
2022-08-16T06:14:00.007Z,21.17
2022-08-16T06:16:35.532Z,20.40
2022-08-16T06:19:04.740Z,18.88
2022-08-16T06:21:36.917Z,21.30
2022-08-16T06:24:52.598Z,19.15
2022-08-16T06:26:57.875Z,18.88
2022-08-16T06:29:31.163Z,20.15
2022-08-16T06:31:58.766Z,20.00
2022-08-16T06:34:56.149Z,22.92
2022-08-16T06:37:15.187Z,18.15
2022-08-16T06:39:49.931Z,18.90
2022-08-16T06:42:48.170Z,16.08
2022-08-16T06:45:43.403Z,17.45
2022-08-16T06:48:19.153Z,17.02
2022-08-16T06:51:05.663Z,16.50
2022-08-16T06:53:36.448Z,17.90
2022-08-16T06:56:14.011Z,16.98
2022-08-16T06:59:05.670Z,16.98
2022-08-16T07:01:45.179Z,16.73
2022-08-16T07:04:31.545Z,18.33
2022-08-16T07:09:30.909Z,15.57
2022-08-16T07:12:03.196Z,15.88
2022-08-16T07:14:33.631Z,16.27
2022-08-16T07:17:07.931Z,14.50
2022-08-16T07:20:30.124Z,15.93
2022-08-16T07:22:37.835Z,14.45
2022-08-16T07:25:16.083Z,14.65
2022-08-16T07:27:44.992Z,15.80
2022-08-16T07:30:38.932Z,15.10
2022-08-16T07:33:07.382Z,15.40
2022-08-16T07:35:37.717Z,15.20
2022-08-16T07:38:13.518Z,14.90
2022-08-16T07:41:09.560Z,14.43
2022-08-16T07:43:40.463Z,14.30
2022-08-16T07:46:38.687Z,14.63
2022-08-16T07:49:02.612Z,13.05
2022-08-16T07:51:37.105Z,13.25
2022-08-16T07:54:10.125Z,14.20
2022-08-16T07:56:43.900Z,12.90
2022-08-16T07:59:11.049Z,12.75
2022-08-16T08:01:38.645Z,12.15
2022-08-16T08:04:13.213Z,12.48
2022-08-16T08:06:43.119Z,11.77
2022-08-16T08:09:16.219Z,11.60
2022-08-16T08:11:59.938Z,11.32
2022-08-16T08:14:35.620Z,10.80
2022-08-16T08:17:08.562Z,11.13
2022-08-16T08:19:37.483Z,12.23
2022-08-16T08:22:09.934Z,10.67
2022-08-16T08:24:53.476Z,10.10
2022-08-16T08:27:27.656Z,8.95
2022-08-16T08:30:49.752Z,9.05
2022-08-16T08:33:01.939Z,8.27
2022-08-16T08:35:36.697Z,7.72
2022-08-16T08:38:08.257Z,8.23
2022-08-16T08:40:38.345Z,7.13
2022-08-16T08:43:12.448Z,6.88
2022-08-16T08:45:52.560Z,6.00
2022-08-16T08:48:33.570Z,7.30
2022-08-16T08:53:35.626Z,6.90
2022-08-16T08:56:22.400Z,6.60
2022-08-16T08:59:00.031Z,6.57
2022-08-16T09:01:43.134Z,5.65
2022-08-16T09:04:27.633Z,6.75
2022-08-16T09:06:58.391Z,6.00
2022-08-16T09:09:33.709Z,7.05
2022-08-16T09:12:06.931Z,7.10
2022-08-16T09:14:51.076Z,6.30
2022-08-16T09:17:54.925Z,7.28
2022-08-16T09:20:14.374Z,7.15
2022-08-16T09:22:51.256Z,6.90
2022-08-16T09:25:26.089Z,7.15
2022-08-16T09:27:57.890Z,7.10
2022-08-16T09:30:43.425Z,6.57
2022-08-16T09:33:19.754Z,6.32
2022-08-16T09:35:53.079Z,7.25
2022-08-16T09:38:32.329Z,7.20
2022-08-16T09:41:06.007Z,7.35
2022-08-16T09:44:00.041Z,6.43
2022-08-16T09:46:45.544Z,7.90
2022-08-16T09:49:18.297Z,6.40
2022-08-16T09:51:53.246Z,5.88
2022-08-16T09:54:23.557Z,7.00
2022-08-16T09:56:53.408Z,7.43
2022-08-16T09:59:23.472Z,6.25
2022-08-16T10:01:52.018Z,5.97
2022-08-16T10:04:31.731Z,5.45
2022-08-16T10:07:15.008Z,5.35
2022-08-16T10:09:54.790Z,5.72
2022-08-16T10:12:46.882Z,5.20
2022-08-16T10:15:23.308Z,5.25
2022-08-16T10:18:00.232Z,5.57
2022-08-16T10:20:36.713Z,4.43
2022-08-16T10:23:09.829Z,5.55
2022-08-16T10:27:19.136Z,5.57
2022-08-16T10:28:39.476Z,4.57
2022-08-16T10:31:14.474Z,11.13
2022-08-16T10:33:45.094Z,5.15
2022-08-16T10:36:38.575Z,4.70
2022-08-16T10:39:02.400Z,4.10
2022-08-16T10:41:32.883Z,4.45
2022-08-16T10:44:00.602Z,4.72
2022-08-16T10:46:39.261Z,5.28
2022-08-16T10:49:12.701Z,5.68
2022-08-16T10:52:01.884Z,5.00
2022-08-16T10:54:31.315Z,4.93
2022-08-16T10:57:00.520Z,4.85
2022-08-16T10:59:39.179Z,5.30
2022-08-16T11:02:56.776Z,5.13
2022-08-16T11:05:12.475Z,4.65
2022-08-16T11:08:05.432Z,4.82
2022-08-16T11:19:03.881Z,4.30
2022-08-16T11:21:32.952Z,4.93
2022-08-16T11:24:02.808Z,5.25
2022-08-16T11:26:30.301Z,5.13
2022-08-16T11:29:14.278Z,5.55
2022-08-16T11:31:46.003Z,5.00
2022-08-16T11:34:21.414Z,5.18
2022-08-16T11:36:53.907Z,5.40
2022-08-16T11:39:29.738Z,4.68
2022-08-16T11:41:57.951Z,5.03
2022-08-16T11:44:52.353Z,4.75
2022-08-16T11:47:13.211Z,4.93
2022-08-16T11:49:40.424Z,5.45
2022-08-16T11:52:07.905Z,4.82
2022-08-16T11:54:36.689Z,4.47
2022-08-16T11:57:09.338Z,4.40
2022-08-16T11:59:39.654Z,4.90
2022-08-16T12:02:31.044Z,4.90
2022-08-16T12:04:57.297Z,4.50
2022-08-16T12:07:24.934Z,4.55
2022-08-16T12:09:53.670Z,5.03
2022-08-16T12:12:23.537Z,4.78
2022-08-16T12:15:00.328Z,5.63
2022-08-16T12:17:31.463Z,4.80
2022-08-16T12:20:01.372Z,4.85
2022-08-16T12:22:29.280Z,5.63
2022-08-16T12:24:57.281Z,4.70
2022-08-16T12:27:26.580Z,5.03
2022-08-16T12:29:58.744Z,5.15
2022-08-16T12:32:53.032Z,5.78
2022-08-16T12:35:18.267Z,5.50
2022-08-16T12:37:49.291Z,5.10
2022-08-16T12:40:29.343Z,5.88
2022-08-16T12:45:30.165Z,5.70
2022-08-16T12:48:34.534Z,5.60
2022-08-16T12:51:13.592Z,5.53
2022-08-16T12:53:48.615Z,5.72
2022-08-16T12:56:19.261Z,5.90
2022-08-16T12:58:51.801Z,5.20
2022-08-16T13:01:23.120Z,5.15
2022-08-16T13:04:11.313Z,5.15
2022-08-16T13:06:41.575Z,5.53
2022-08-16T13:09:30.214Z,5.05
2022-08-16T13:12:16.318Z,5.30
2022-08-16T13:14:44.771Z,5.40
2022-08-16T13:17:19.245Z,6.03
2022-08-16T13:20:08.740Z,5.65
2022-08-16T13:22:50.351Z,6.00
2022-08-16T13:25:21.153Z,5.78
2022-08-16T13:28:02.280Z,5.35
2022-08-16T13:30:37.232Z,5.30
2022-08-16T13:33:13.388Z,6.32
2022-08-16T13:35:45.057Z,5.80
2022-08-16T13:38:24.340Z,5.80
2022-08-16T13:40:53.125Z,5.10
2022-08-16T13:43:26.439Z,4.93
2022-08-16T13:45:56.270Z,6.45
2022-08-16T13:48:42.579Z,11.75
2022-08-16T13:51:18.039Z,7.43
2022-08-16T13:56:25.024Z,4.97
2022-08-16T13:58:54.620Z,4.70
2022-08-16T14:01:23.269Z,4.15
2022-08-16T14:03:54.566Z,4.50
2022-08-16T14:06:23.138Z,4.23
2022-08-16T14:08:59.173Z,4.57
2022-08-16T14:11:35.197Z,4.43
2022-08-16T14:14:05.503Z,3.92
2022-08-16T14:16:34.945Z,4.30
2022-08-16T14:19:03.985Z,4.45
2022-08-16T14:21:35.163Z,4.03
2022-08-16T14:24:07.785Z,23.15
2022-08-16T14:26:44.315Z,8.55
2022-08-16T14:29:11.528Z,5.13
2022-08-16T14:31:39.620Z,5.45
2022-08-16T14:34:07.262Z,4.03
2022-08-16T14:36:59.482Z,4.40
2022-08-16T14:39:27.081Z,4.47
2022-08-16T14:41:56.013Z,4.25
2022-08-16T14:44:24.188Z,4.70
2022-08-16T14:46:53.489Z,5.13
2022-08-16T14:49:20.674Z,4.93
2022-08-16T14:51:48.846Z,4.53
2022-08-16T14:54:16.248Z,4.55
2022-08-16T14:56:46.955Z,4.70
2022-08-16T14:59:23.715Z,4.82
2022-08-16T15:01:59.453Z,5.07
2022-08-16T15:04:40.431Z,4.65
2022-08-16T15:07:16.870Z,4.50
2022-08-16T15:10:01.530Z,4.78
2022-08-16T15:12:34.152Z,4.50
2022-08-16T15:15:12.570Z,4.68
2022-08-16T15:17:54.067Z,4.32
2022-08-16T15:20:26.466Z,7.85
2022-08-16T15:22:54.966Z,4.63
2022-08-16T15:25:29.549Z,4.45
2022-08-16T15:28:00.796Z,4.47
2022-08-16T15:30:57.290Z,4.43
2022-08-16T15:33:20.387Z,4.22
2022-08-16T15:35:50.582Z,4.30
2022-08-16T15:38:55.343Z,3.63
2022-08-16T15:41:06.565Z,4.00
2022-08-16T15:43:39.777Z,3.90
2022-08-16T15:46:34.587Z,3.80
2022-08-16T15:49:12.728Z,4.43
2022-08-16T15:51:44.687Z,3.30
2022-08-16T15:54:21.594Z,3.75
2022-08-16T15:57:04.356Z,4.00
2022-08-16T15:59:48.991Z,3.60
2022-08-16T16:02:29.653Z,4.07
2022-08-16T16:05:06.629Z,3.80
2022-08-16T16:07:35.905Z,3.78
2022-08-16T16:10:08.232Z,4.22
2022-08-16T16:12:51.344Z,4.05
2022-08-16T16:15:25.448Z,4.72
2022-08-16T16:17:53.878Z,4.57
2022-08-16T16:20:27.168Z,4.40
2022-08-16T16:25:23.732Z,5.07
2022-08-16T16:27:59.214Z,5.70
2022-08-16T16:30:38.305Z,4.40
2022-08-16T16:33:15.552Z,4.50
2022-08-16T16:35:55.354Z,4.30
2022-08-16T16:38:28.838Z,4.65
2022-08-16T16:41:02.130Z,4.35
2022-08-16T16:43:31.654Z,5.75
2022-08-16T16:46:01.665Z,4.82
2022-08-16T16:48:34.763Z,5.13
2022-08-16T16:53:41.391Z,5.30
2022-08-16T16:56:19.486Z,5.40
2022-08-16T16:58:56.710Z,4.88
2022-08-16T17:01:41.342Z,5.20
2022-08-16T17:04:27.445Z,5.82
2022-08-16T17:07:01.236Z,5.47
2022-08-16T17:09:29.535Z,5.80
2022-08-16T17:11:58.496Z,5.38
2022-08-16T17:14:33.235Z,5.80
2022-08-16T17:17:05.194Z,4.88
2022-08-16T17:19:32.652Z,4.82
2022-08-16T17:22:02.714Z,4.43
2022-08-16T17:24:39.862Z,4.85
2022-08-16T17:27:08.687Z,4.80
2022-08-16T17:29:42.714Z,16.52
2022-08-16T17:32:33.637Z,9.20
2022-08-16T17:35:11.642Z,7.53
2022-08-16T17:37:50.883Z,6.35
2022-08-16T17:40:32.054Z,5.60
2022-08-16T17:43:10.203Z,4.90
2022-08-16T17:45:39.368Z,5.55
2022-08-16T17:48:07.138Z,5.00
2022-08-16T17:50:34.609Z,5.35
2022-08-16T17:53:05.060Z,5.90
2022-08-16T17:55:36.308Z,5.65
2022-08-16T17:58:14.555Z,4.57
2022-08-16T18:00:56.181Z,5.13
2022-08-16T18:04:02.683Z,5.32
2022-08-16T18:06:16.670Z,5.03
2022-08-16T18:08:48.621Z,4.80
2022-08-16T18:11:18.225Z,5.13
2022-08-16T18:13:49.247Z,5.18
2022-08-16T18:16:16.954Z,5.72
2022-08-16T18:18:44.372Z,5.07
2022-08-16T18:21:42.516Z,5.25
2022-08-16T18:24:12.372Z,6.00
2022-08-16T18:26:39.698Z,5.43
2022-08-16T18:29:07.273Z,5.60
2022-08-16T18:31:35.077Z,5.28
2022-08-16T18:34:02.835Z,6.88
2022-08-16T18:36:30.895Z,5.45
2022-08-16T18:39:00.503Z,6.90
2022-08-16T18:41:28.986Z,6.00
2022-08-16T18:44:24.709Z,6.10
2022-08-16T18:46:45.778Z,5.57
2022-08-16T18:49:18.943Z,6.20
2022-08-16T18:51:46.253Z,6.18
2022-08-16T18:54:17.875Z,5.97
2022-08-16T18:56:56.549Z,6.28
2022-08-16T18:59:28.998Z,6.03
2022-08-16T19:01:59.969Z,5.80
2022-08-16T19:04:50.499Z,6.10
2022-08-16T19:07:22.699Z,5.93
2022-08-16T19:09:50.125Z,6.00
2022-08-16T19:12:17.402Z,6.28
2022-08-16T19:15:07.828Z,5.85
2022-08-16T19:17:37.865Z,6.30
2022-08-16T19:20:10.475Z,6.30
2022-08-16T19:23:02.049Z,6.57
2022-08-16T19:25:47.176Z,5.63
2022-08-16T19:28:50.849Z,6.03
2022-08-16T19:31:29.075Z,6.40
2022-08-16T19:33:56.946Z,6.72
2022-08-16T19:36:30.438Z,6.40
2022-08-16T19:39:04.261Z,7.40
2022-08-16T19:41:35.424Z,6.70
2022-08-16T19:44:04.215Z,6.43
2022-08-16T19:46:32.042Z,6.72
2022-08-16T19:48:59.601Z,7.13
2022-08-16T19:51:29.866Z,7.05
2022-08-16T19:53:57.909Z,6.90
2022-08-16T19:56:26.599Z,6.57
2022-08-16T20:01:43.532Z,6.50
2022-08-16T20:04:14.346Z,6.82
2022-08-16T20:06:42.560Z,6.80
2022-08-16T20:09:15.236Z,7.00
2022-08-16T20:11:48.567Z,7.25
2022-08-16T20:14:24.602Z,7.03
2022-08-16T20:16:55.521Z,7.22
2022-08-16T20:19:23.083Z,7.75
2022-08-16T20:21:50.419Z,10.20
2022-08-16T20:24:33.308Z,10.27
2022-08-16T20:27:03.580Z,8.15
2022-08-16T20:29:31.045Z,7.68
2022-08-16T20:31:58.665Z,7.65
2022-08-16T20:34:26.004Z,7.97
2022-08-16T20:36:53.305Z,7.90
2022-08-16T20:39:20.465Z,7.65
2022-08-16T20:41:47.633Z,7.75
2022-08-16T20:44:14.765Z,8.38
2022-08-16T20:46:41.933Z,7.57
2022-08-16T20:49:10.219Z,8.70
2022-08-16T20:51:46.939Z,8.27
2022-08-16T20:54:18.686Z,8.60
2022-08-16T20:56:45.850Z,8.93
2022-08-16T20:59:13.635Z,8.68
2022-08-16T21:01:46.662Z,8.55
2022-08-16T21:04:22.264Z,9.32
2022-08-16T21:06:53.669Z,9.45
2022-08-16T21:09:24.305Z,9.43
2022-08-16T21:11:54.026Z,9.10
2022-08-16T21:14:21.776Z,9.23
2022-08-16T21:16:49.384Z,9.57
2022-08-16T21:19:16.741Z,9.57
2022-08-16T21:21:44.041Z,9.55
2022-08-16T21:24:11.487Z,10.15
2022-08-16T21:26:38.891Z,9.75
2022-08-16T21:29:07.836Z,10.32
2022-08-16T21:31:40.801Z,10.43
2022-08-16T21:34:08.710Z,10.57
2022-08-16T21:36:36.797Z,9.93
2022-08-16T21:39:10.830Z,9.75
2022-08-16T21:41:41.167Z,11.18
2022-08-16T21:44:09.988Z,10.15
2022-08-16T21:46:37.105Z,10.35
2022-08-16T21:49:05.836Z,10.25
2022-08-16T21:51:33.065Z,10.82
2022-08-16T21:54:02.784Z,10.30
2022-08-16T21:56:30.017Z,12.05
2022-08-16T21:58:57.233Z,10.27
2022-08-16T22:01:24.992Z,11.57
2022-08-16T22:04:01.711Z,12.15
2022-08-16T22:06:41.199Z,11.40
2022-08-16T22:09:10.444Z,11.75
2022-08-16T22:11:38.532Z,11.85
2022-08-16T22:14:05.789Z,11.77
2022-08-16T22:16:36.330Z,11.30
2022-08-16T22:19:04.861Z,11.27
2022-08-16T22:21:34.341Z,12.40
2022-08-16T22:24:02.059Z,12.13
2022-08-16T22:26:32.514Z,11.80
2022-08-16T22:29:06.834Z,13.00
2022-08-16T22:31:35.351Z,13.00
2022-08-16T22:34:03.452Z,11.95
2022-08-16T22:36:32.788Z,11.90
2022-08-16T22:39:03.665Z,13.30
2022-08-16T22:41:32.741Z,12.50
2022-08-16T22:44:07.245Z,13.32
2022-08-16T22:46:36.565Z,14.07
2022-08-16T22:49:05.064Z,13.80
2022-08-16T22:51:32.483Z,13.07
2022-08-16T22:53:59.641Z,13.80
2022-08-16T22:56:27.300Z,13.90
2022-08-16T22:58:55.519Z,14.05
2022-08-16T23:01:25.337Z,14.73
2022-08-16T23:03:56.496Z,14.18
2022-08-16T23:06:24.636Z,15.18
2022-08-16T23:08:51.950Z,15.05
2022-08-16T23:11:27.975Z,15.68
2022-08-16T23:13:56.553Z,15.57
2022-08-16T23:16:33.261Z,15.07
2022-08-16T23:19:08.302Z,14.48
2022-08-16T23:21:37.657Z,14.23
2022-08-16T23:24:05.796Z,15.35
2022-08-16T23:26:45.207Z,15.70
2022-08-16T23:29:28.699Z,15.18
2022-08-16T23:32:08.659Z,14.95
2022-08-16T23:34:35.985Z,15.35
2022-08-16T23:37:03.187Z,15.15
2022-08-16T23:39:30.513Z,14.40
2022-08-16T23:41:58.044Z,14.77
2022-08-16T23:44:55.974Z,15.77
2022-08-16T23:47:12.784Z,14.98
2022-08-16T23:49:56.713Z,14.77
2022-08-16T23:52:42.368Z,14.88
2022-08-16T23:55:16.359Z,14.45
2022-08-16T23:57:46.137Z,13.93
